Time;durP1;ratioP1;P1;durP2;ratioP2;P2;SDS_P1;SDS_P2;PMS_P1;PMS_P2;Temp;Humidity;BMP_temperature;BMP_pressure;BME280_temperature;BME280_humidity;BME280_pressure;Samples;Min_cycle;Max_cycle;Signal;HPM_P1;HPM_P2
2022/12/02 00:01:14;;;;;;;76.20;50.65;;;;;;;;;;5055242;28;20434;-66
2022/12/02 00:03:40;;;;;;;74.03;45.47;;;;;;;;;;5056716;28;20020;-67
2022/12/02 00:06:12;;;;;;;73.25;48.70;;;;;;;;;;5056418;28;20040;-67
2022/12/02 00:08:37;;;;;;;83.53;48.42;;;;;;;;;;5071406;28;20028;-67
2022/12/02 00:11:05;;;;;;;82.65;50.25;;;;;;;;;;5065887;28;20025;-67
2022/12/02 00:13:40;;;;;;;77.85;47.78;;;;;;;;;;5051233;28;20017;-67
2022/12/02 00:16:11;;;;;;;72.18;47.92;;;;;;;;;;5050809;28;20026;-67
2022/12/02 00:18:36;;;;;;;73.35;45.80;;;;;;;;;;5038492;28;20503;-67
2022/12/02 00:21:01;;;;;;;69.60;46.15;;;;;;;;;;5038609;28;20022;-66
2022/12/02 00:23:27;;;;;;;78.03;48.47;;;;;;;;;;5038550;28;20464;-66
2022/12/02 00:25:52;;;;;;;75.95;47.72;;;;;;;;;;5038379;28;20033;-67
2022/12/02 00:28:18;;;;;;;68.20;44.28;;;;;;;;;;5056554;28;20029;-67
2022/12/02 00:30:43;;;;;;;70.38;48.45;;;;;;;;;;5050019;28;20029;-67
2022/12/02 00:33:09;;;;;;;70.35;45.33;;;;;;;;;;5039580;28;20100;-67
2022/12/02 00:35:34;;;;;;;76.60;45.35;;;;;;;;;;5070069;28;20031;-67
2022/12/02 00:37:59;;;;;;;66.43;43.47;;;;;;;;;;5059096;28;20476;-67
2022/12/02 00:40:25;;;;;;;64.93;47.63;;;;;;;;;;5074167;28;20020;-67
2022/12/02 00:42:50;;;;;;;66.60;45.58;;;;;;;;;;5055175;28;20483;-67
2022/12/02 00:47:59;;;;;;;79.10;48.53;;;;;;;;;;5049633;28;20047;-67
2022/12/02 00:50:25;;;;;;;75.78;46.60;;;;;;;;;;5056359;28;20013;-67
2022/12/02 00:52:50;;;;;;;67.00;44.13;;;;;;;;;;5055030;28;20025;-67
2022/12/02 00:55:16;;;;;;;74.15;46.15;;;;;;;;;;5058504;28;20107;-67
2022/12/02 00:57:41;;;;;;;72.78;46.60;;;;;;;;;;5056851;28;20032;-67
2022/12/02 01:00:08;;;;;;;71.40;47.08;;;;;;;;;;5053451;28;20364;-67
2022/12/02 01:02:33;;;;;;;68.70;44.78;;;;;;;;;;5051519;28;20017;-67
2022/12/02 01:04:58;;;;;;;69.80;46.35;;;;;;;;;;5053469;28;20445;-67
2022/12/02 01:07:23;;;;;;;73.32;47.83;;;;;;;;;;5055382;28;20024;-67
2022/12/02 01:09:49;;;;;;;71.95;46.05;;;;;;;;;;5073399;28;20020;-67
2022/12/02 01:12:14;;;;;;;72.13;44.60;;;;;;;;;;5058035;28;20025;-67
2022/12/02 01:14:39;;;;;;;72.45;45.83;;;;;;;;;;5042484;28;20017;-67
2022/12/02 01:17:05;;;;;;;68.97;45.38;;;;;;;;;;5054363;28;20017;-67
2022/12/02 01:19:30;;;;;;;73.88;46.88;;;;;;;;;;5049670;28;20475;-67
2022/12/02 01:21:55;;;;;;;69.35;44.85;;;;;;;;;;5051487;28;20529;-67
2022/12/02 01:24:21;;;;;;;73.60;47.35;;;;;;;;;;5053819;28;20051;-67
2022/12/02 01:26:46;;;;;;;72.65;43.63;;;;;;;;;;5065636;28;20024;-67
2022/12/02 01:29:11;;;;;;;71.80;47.30;;;;;;;;;;5038210;28;20034;-67
2022/12/02 01:31:36;;;;;;;71.32;44.30;;;;;;;;;;5034425;28;20017;-67
2022/12/02 01:34:02;;;;;;;65.50;44.15;;;;;;;;;;5045865;28;20024;-67
2022/12/02 01:36:27;;;;;;;71.22;43.20;;;;;;;;;;5034616;28;20450;-67
2022/12/02 01:38:52;;;;;;;67.00;44.13;;;;;;;;;;5034481;28;20045;-66
2022/12/02 01:41:17;;;;;;;57.63;39.83;;;;;;;;;;5055000;28;20508;-66
2022/12/02 01:43:43;;;;;;;62.45;40.65;;;;;;;;;;5057103;28;20145;-66
2022/12/02 01:46:08;;;;;;;70.03;40.83;;;;;;;;;;5053531;28;20056;-66
2022/12/02 01:48:34;;;;;;;58.92;38.38;;;;;;;;;;5053861;28;20028;-66
2022/12/02 01:50:59;;;;;;;64.43;39.00;;;;;;;;;;5051463;28;20048;-66
2022/12/02 01:53:24;;;;;;;67.75;41.08;;;;;;;;;;5052742;28;20454;-66
2022/12/02 01:55:50;;;;;;;59.85;37.47;;;;;;;;;;5053461;28;20021;-66
2022/12/02 01:58:17;;;;;;;64.50;36.20;;;;;;;;;;5053842;28;20078;-66
2022/12/02 02:00:42;;;;;;;65.75;39.65;;;;;;;;;;5051379;28;20029;-67
2022/12/02 02:03:07;;;;;;;70.38;37.95;;;;;;;;;;5034238;28;20546;-67
2022/12/02 02:05:33;;;;;;;65.15;38.38;;;;;;;;;;5033091;28;20072;-67
2022/12/02 02:08:06;;;;;;;68.07;40.33;;;;;;;;;;5033598;28;20026;-67
2022/12/02 02:10:32;;;;;;;64.20;42.03;;;;;;;;;;5030320;28;20022;-67
2022/12/02 02:12:57;;;;;;;60.65;40.05;;;;;;;;;;5039943;28;20020;-66
2022/12/02 02:15:23;;;;;;;62.28;39.08;;;;;;;;;;5039145;28;20464;-67
2022/12/02 02:17:48;;;;;;;62.75;38.97;;;;;;;;;;5053341;28;20017;-66
2022/12/02 02:20:18;;;;;;;54.30;38.33;;;;;;;;;;5045809;28;20100;-66
2022/12/02 02:23:02;;;;;;;68.32;39.95;;;;;;;;;;5034400;28;20075;-66
2022/12/02 02:25:27;;;;;;;69.22;42.33;;;;;;;;;;5042393;28;20021;-66
2022/12/02 02:27:54;;;;;;;62.22;40.10;;;;;;;;;;5044592;28;20455;-66
2022/12/02 02:30:19;;;;;;;61.30;41.22;;;;;;;;;;5033434;28;20380;-67
2022/12/02 02:32:45;;;;;;;68.90;42.97;;;;;;;;;;5045944;28;20029;-67
2022/12/02 02:35:10;;;;;;;68.43;45.33;;;;;;;;;;5043977;28;20025;-67
2022/12/02 02:37:36;;;;;;;60.75;42.63;;;;;;;;;;5035048;28;20017;-66
2022/12/02 02:40:01;;;;;;;69.90;44.17;;;;;;;;;;5032008;28;20067;-66
2022/12/02 02:42:26;;;;;;;68.22;41.70;;;;;;;;;;5058617;28;20017;-67
2022/12/02 02:44:52;;;;;;;59.78;40.03;;;;;;;;;;5052699;28;20054;-66
2022/12/02 02:47:17;;;;;;;59.25;40.35;;;;;;;;;;5052368;28;20019;-66
2022/12/02 02:49:42;;;;;;;66.45;42.15;;;;;;;;;;5052254;28;20021;-66
2022/12/02 02:52:08;;;;;;;63.28;43.03;;;;;;;;;;5051541;28;20024;-66
2022/12/02 02:54:33;;;;;;;62.08;39.35;;;;;;;;;;5029535;28;20035;-66
2022/12/02 02:56:58;;;;;;;68.50;42.38;;;;;;;;;;5039519;28;20412;-66
2022/12/02 02:59:23;;;;;;;60.25;39.90;;;;;;;;;;5042980;28;20029;-66
2022/12/02 03:01:49;;;;;;;63.88;39.42;;;;;;;;;;5031515;28;20025;-66
2022/12/02 03:04:16;;;;;;;65.07;40.22;;;;;;;;;;5041022;28;20052;-66
2022/12/02 03:06:42;;;;;;;65.90;42.97;;;;;;;;;;5063438;28;20024;-67
2022/12/02 03:09:08;;;;;;;72.00;44.00;;;;;;;;;;5041868;28;20135;-67
2022/12/02 03:11:34;;;;;;;68.15;41.03;;;;;;;;;;5046180;28;20017;-67
2022/12/02 03:14:00;;;;;;;61.47;41.38;;;;;;;;;;5052333;28;20151;-67
2022/12/02 03:16:25;;;;;;;60.15;40.42;;;;;;;;;;5050381;28;20487;-66
2022/12/02 03:18:51;;;;;;;66.45;41.65;;;;;;;;;;5055823;28;20017;-66
2022/12/02 03:21:18;;;;;;;65.97;40.40;;;;;;;;;;5051781;28;20021;-67
2022/12/02 03:23:44;;;;;;;66.00;41.20;;;;;;;;;;5051394;28;20023;-66
2022/12/02 03:26:09;;;;;;;68.13;42.38;;;;;;;;;;5051717;28;20028;-66
2022/12/02 03:28:35;;;;;;;63.65;40.72;;;;;;;;;;5047689;28;20099;-67
2022/12/02 03:31:00;;;;;;;65.47;41.58;;;;;;;;;;5061471;28;20021;-66
2022/12/02 03:33:26;;;;;;;68.78;40.38;;;;;;;;;;5044428;28;20014;-66
2022/12/02 03:35:51;;;;;;;64.70;40.50;;;;;;;;;;5033565;28;20601;-66
2022/12/02 03:38:17;;;;;;;65.85;42.70;;;;;;;;;;5032734;28;20399;-66
2022/12/02 03:40:42;;;;;;;68.20;39.00;;;;;;;;;;5044550;28;20047;-66
2022/12/02 03:43:07;;;;;;;61.10;40.90;;;;;;;;;;5031436;28;20644;-67
2022/12/02 03:45:34;;;;;;;66.35;40.55;;;;;;;;;;5039337;28;20029;-66
2022/12/02 03:47:59;;;;;;;70.60;42.88;;;;;;;;;;5033528;28;20032;-66
2022/12/02 03:50:25;;;;;;;65.53;41.42;;;;;;;;;;5047117;28;20025;-66
2022/12/02 03:52:50;;;;;;;66.50;42.83;;;;;;;;;;5040705;28;20044;-66
2022/12/02 03:55:15;;;;;;;67.55;41.90;;;;;;;;;;5049472;28;20542;-66
2022/12/02 03:57:41;;;;;;;59.67;38.00;;;;;;;;;;5032529;28;20029;-66
2022/12/02 04:00:07;;;;;;;64.00;39.72;;;;;;;;;;5032219;28;20484;-66
2022/12/02 04:02:32;;;;;;;62.13;41.22;;;;;;;;;;5030433;28;20075;-66
2022/12/02 04:04:57;;;;;;;69.60;42.40;;;;;;;;;;5032196;28;20021;-66
2022/12/02 04:07:23;;;;;;;67.53;37.95;;;;;;;;;;5032045;28;20379;-66
2022/12/02 04:09:48;;;;;;;72.88;42.83;;;;;;;;;;5029767;28;20024;-67
2022/12/02 04:12:13;;;;;;;65.00;38.50;;;;;;;;;;5045007;28;20456;-66
2022/12/02 04:14:38;;;;;;;59.63;38.95;;;;;;;;;;5033905;28;20486;-66
2022/12/02 04:17:04;;;;;;;66.93;37.92;;;;;;;;;;5038841;28;20507;-67
2022/12/02 04:19:29;;;;;;;60.55;38.70;;;;;;;;;;5039185;28;20145;-66
2022/12/02 04:21:54;;;;;;;55.15;39.15;;;;;;;;;;5034045;28;20038;-66
2022/12/02 04:24:19;;;;;;;61.58;38.92;;;;;;;;;;5036749;28;20036;-66
2022/12/02 04:26:45;;;;;;;62.47;38.97;;;;;;;;;;5035983;28;20096;-66
2022/12/02 04:29:10;;;;;;;61.20;41.05;;;;;;;;;;5034271;28;20022;-67
2022/12/02 04:31:35;;;;;;;58.83;38.95;;;;;;;;;;5036593;28;20010;-67
2022/12/02 04:34:00;;;;;;;67.00;42.05;;;;;;;;;;5033548;28;20025;-67
2022/12/02 04:36:26;;;;;;;65.55;38.40;;;;;;;;;;5050721;28;20074;-67
2022/12/02 04:38:51;;;;;;;64.53;38.53;;;;;;;;;;5040931;28;20029;-66
2022/12/02 04:41:16;;;;;;;58.13;38.33;;;;;;;;;;5056477;28;20073;-66
2022/12/02 04:43:41;;;;;;;57.42;39.50;;;;;;;;;;5040085;28;20025;-66
2022/12/02 04:46:06;;;;;;;60.15;39.78;;;;;;;;;;5034561;28;20040;-66
2022/12/02 04:48:32;;;;;;;60.45;39.75;;;;;;;;;;5052527;28;20013;-66
2022/12/02 04:50:57;;;;;;;59.03;39.83;;;;;;;;;;5044607;28;20027;-67
2022/12/02 04:53:22;;;;;;;64.35;38.67;;;;;;;;;;5053116;28;20109;-66
2022/12/02 04:55:47;;;;;;;55.77;36.20;;;;;;;;;;5050627;28;20021;-67
2022/12/02 04:58:13;;;;;;;63.30;38.88;;;;;;;;;;5054235;28;20275;-66
2022/12/02 05:00:38;;;;;;;64.40;38.88;;;;;;;;;;5048472;28;20018;-66
2022/12/02 05:03:03;;;;;;;68.35;41.92;;;;;;;;;;5051641;28;20107;-67
2022/12/02 05:05:29;;;;;;;65.07;39.22;;;;;;;;;;5066183;28;20040;-67
2022/12/02 05:07:54;;;;;;;62.45;37.38;;;;;;;;;;5059117;28;20016;-67
2022/12/02 05:10:19;;;;;;;65.90;40.38;;;;;;;;;;5063531;28;20020;-67
2022/12/02 05:12:44;;;;;;;62.85;39.75;;;;;;;;;;5055397;28;20060;-67
2022/12/02 05:15:10;;;;;;;66.85;40.28;;;;;;;;;;5059440;28;20406;-67
2022/12/02 05:17:35;;;;;;;57.33;37.05;;;;;;;;;;5061623;28;20426;-68
2022/12/02 05:20:00;;;;;;;69.00;39.65;;;;;;;;;;5058018;28;20379;-67
2022/12/02 05:22:25;;;;;;;72.10;41.10;;;;;;;;;;5048958;28;20013;-67
2022/12/02 05:24:51;;;;;;;58.85;39.67;;;;;;;;;;5058094;28;20063;-67
2022/12/02 05:27:16;;;;;;;65.40;40.53;;;;;;;;;;5063755;28;20076;-67
2022/12/02 05:29:41;;;;;;;59.35;37.28;;;;;;;;;;5059342;28;20288;-67
2022/12/02 05:32:06;;;;;;;66.25;39.15;;;;;;;;;;5059149;28;20070;-67
2022/12/02 05:34:32;;;;;;;65.93;37.33;;;;;;;;;;5057977;28;20382;-67
2022/12/02 05:36:57;;;;;;;62.60;36.70;;;;;;;;;;5059640;28;20052;-67
2022/12/02 05:39:22;;;;;;;60.00;36.83;;;;;;;;;;5053789;28;20059;-67
2022/12/02 05:41:48;;;;;;;61.75;39.40;;;;;;;;;;5055655;28;20020;-67
2022/12/02 05:44:21;;;;;;;60.35;37.28;;;;;;;;;;5054231;28;20029;-67
2022/12/02 05:46:46;;;;;;;69.75;38.35;;;;;;;;;;5054559;28;20021;-67
2022/12/02 05:49:17;;;;;;;57.33;37.90;;;;;;;;;;5046653;28;20364;-67
2022/12/02 05:51:42;;;;;;;59.20;36.53;;;;;;;;;;5057822;28;20024;-67
2022/12/02 05:54:10;;;;;;;56.58;38.30;;;;;;;;;;5054421;28;20021;-67
2022/12/02 05:56:35;;;;;;;61.58;37.05;;;;;;;;;;5040275;28;20021;-66
2022/12/02 05:59:01;;;;;;;59.03;36.60;;;;;;;;;;5054858;28;20468;-66
2022/12/02 06:01:26;;;;;;;55.13;32.85;;;;;;;;;;5051779;28;20013;-67
2022/12/02 06:03:52;;;;;;;55.40;36.63;;;;;;;;;;5051077;28;20021;-67
2022/12/02 06:06:19;;;;;;;62.78;39.03;;;;;;;;;;5056849;28;20267;-67
2022/12/02 06:08:44;;;;;;;55.60;36.13;;;;;;;;;;5048701;28;20070;-67
2022/12/02 06:11:28;;;;;;;63.05;38.17;;;;;;;;;;5056938;28;20075;-67
2022/12/02 06:13:54;;;;;;;;;;;;;;;;;;5054723;28;20036;-66
2022/12/02 06:16:23;;;;;;;69.43;39.45;;;;;;;;;;5058736;28;19904;-67
2022/12/02 06:18:48;;;;;;;61.88;41.60;;;;;;;;;;5054769;28;20013;-67
2022/12/02 06:21:15;;;;;;;79.70;40.75;;;;;;;;;;5058918;28;20024;-67
2022/12/02 06:23:43;;;;;;;67.22;40.65;;;;;;;;;;5052352;28;20025;-67
2022/12/02 06:26:08;;;;;;;59.58;37.65;;;;;;;;;;5060472;28;20032;-67
2022/12/02 06:28:35;;;;;;;64.35;39.78;;;;;;;;;;5057981;28;20485;-68
2022/12/02 06:31:08;;;;;;;73.05;42.47;;;;;;;;;;5057381;28;20025;-67
2022/12/02 06:33:35;;;;;;;69.70;39.60;;;;;;;;;;5052567;28;20391;-67
2022/12/02 06:36:02;;;;;;;73.38;40.67;;;;;;;;;;5050412;28;20096;-68
2022/12/02 06:38:31;;;;;;;61.92;39.17;;;;;;;;;;5041474;28;20021;-67
2022/12/02 06:41:01;;;;;;;66.00;41.90;;;;;;;;;;5041461;28;20502;-67
2022/12/02 06:43:28;;;;;;;68.80;42.38;;;;;;;;;;5052589;28;20109;-67
2022/12/02 06:45:54;;;;;;;73.50;42.25;;;;;;;;;;5047525;28;20036;-67
2022/12/02 06:48:39;;;;;;;65.18;41.60;;;;;;;;;;5058612;28;20028;-66
2022/12/02 06:51:24;;;;;;;73.07;40.28;;;;;;;;;;5044300;28;20100;-66
2022/12/02 06:53:50;;;;;;;62.95;40.55;;;;;;;;;;5045126;28;20044;-67
2022/12/02 06:56:18;;;;;;;67.97;41.58;;;;;;;;;;5055383;28;20033;-67
2022/12/02 06:58:45;;;;;;;60.70;37.92;;;;;;;;;;5050384;28;20013;-67
2022/12/02 07:01:21;;;;;;;72.88;40.45;;;;;;;;;;5042320;28;20125;-67
2022/12/02 07:03:52;;;;;;;60.97;41.40;;;;;;;;;;5051751;28;20033;-67
2022/12/02 07:06:23;;;;;;;70.28;42.75;;;;;;;;;;5063607;28;20037;-67
2022/12/02 07:08:49;;;;;;;68.53;39.40;;;;;;;;;;5049263;28;20044;-67
2022/12/02 07:11:19;;;;;;;67.40;39.53;;;;;;;;;;5045846;28;20056;-67
2022/12/02 07:13:44;;;;;;;59.88;36.55;;;;;;;;;;5047984;28;20483;-67
2022/12/02 07:16:30;;;;;;;65.78;42.78;;;;;;;;;;5058559;28;20059;-67
2022/12/02 07:18:55;;;;;;;75.90;42.35;;;;;;;;;;5055409;28;20029;-67
2022/12/02 07:21:21;;;;;;;65.07;40.80;;;;;;;;;;5047253;28;20580;-67
2022/12/02 07:23:46;;;;;;;65.72;40.78;;;;;;;;;;5050660;28;20107;-68
2022/12/02 07:26:11;;;;;;;69.65;39.47;;;;;;;;;;5050330;28;20040;-67
2022/12/02 07:28:38;;;;;;;63.60;40.60;;;;;;;;;;5053827;28;20470;-67
2022/12/02 07:31:07;;;;;;;72.82;40.47;;;;;;;;;;5048907;28;20382;-68
2022/12/02 07:33:32;;;;;;;68.75;41.20;;;;;;;;;;5056174;28;20490;-67
2022/12/02 07:35:57;;;;;;;73.07;40.88;;;;;;;;;;5044147;28;20067;-67
2022/12/02 07:38:23;;;;;;;61.17;40.00;;;;;;;;;;5046191;28;20475;-67
2022/12/02 07:40:48;;;;;;;66.40;38.50;;;;;;;;;;5043790;28;20598;-67
2022/12/02 07:43:13;;;;;;;71.75;39.80;;;;;;;;;;5045675;28;20463;-68
2022/12/02 07:45:38;;;;;;;53.83;36.13;;;;;;;;;;5040947;28;20032;-67
2022/12/02 07:48:04;;;;;;;73.00;38.88;;;;;;;;;;5041469;28;20028;-67
2022/12/02 07:50:29;;;;;;;69.20;39.83;;;;;;;;;;5046630;28;20025;-68
2022/12/02 07:52:54;;;;;;;53.90;36.75;;;;;;;;;;5043272;28;20039;-67
2022/12/02 07:55:19;;;;;;;64.20;36.45;;;;;;;;;;5042445;28;20425;-67
2022/12/02 07:57:45;;;;;;;64.53;36.50;;;;;;;;;;5044364;28;20032;-68
2022/12/02 08:00:10;;;;;;;58.03;36.45;;;;;;;;;;5038001;28;20033;-67
2022/12/02 08:02:36;;;;;;;67.88;38.70;;;;;;;;;;5049963;28;20017;-68
2022/12/02 08:05:01;;;;;;;63.13;37.75;;;;;;;;;;5037978;28;20505;-67
2022/12/02 08:07:26;;;;;;;58.15;36.78;;;;;;;;;;5035288;28;20551;-68
2022/12/02 08:09:51;;;;;;;50.10;33.38;;;;;;;;;;5029462;28;20036;-68
2022/12/02 08:12:17;;;;;;;64.18;36.95;;;;;;;;;;5034909;28;20117;-67
2022/12/02 08:14:42;;;;;;;60.25;36.85;;;;;;;;;;5046331;28;20025;-67
2022/12/02 08:17:07;;;;;;;67.40;38.03;;;;;;;;;;5045910;28;20052;-67
2022/12/02 08:19:32;;;;;;;63.33;35.72;;;;;;;;;;5034060;28;20028;-68
2022/12/02 08:21:58;;;;;;;56.47;34.30;;;;;;;;;;5034360;28;20538;-67
2022/12/02 08:24:23;;;;;;;68.38;36.63;;;;;;;;;;5046428;28;20060;-67
2022/12/02 08:26:48;;;;;;;57.78;35.90;;;;;;;;;;5045099;28;20036;-68
2022/12/02 08:29:13;;;;;;;56.30;34.45;;;;;;;;;;5038780;28;20033;-67
2022/12/02 08:31:38;;;;;;;63.75;35.38;;;;;;;;;;5034691;28;20029;-68
2022/12/02 08:34:04;;;;;;;65.90;36.97;;;;;;;;;;5043482;28;20492;-67
2022/12/02 08:36:29;;;;;;;62.65;37.80;;;;;;;;;;5038929;28;20031;-68
2022/12/02 08:38:54;;;;;;;60.88;38.53;;;;;;;;;;5041587;28;20036;-67
2022/12/02 08:41:20;;;;;;;60.60;36.55;;;;;;;;;;5030217;28;20031;-67
2022/12/02 08:43:45;;;;;;;53.63;36.88;;;;;;;;;;5046738;28;20021;-68
2022/12/02 08:46:10;;;;;;;59.63;38.30;;;;;;;;;;5034150;28;20728;-68
2022/12/02 08:48:35;;;;;;;58.67;36.42;;;;;;;;;;5045364;28;20395;-68
2022/12/02 08:51:01;;;;;;;62.08;36.70;;;;;;;;;;5045857;28;20170;-67
2022/12/02 08:53:26;;;;;;;66.57;38.72;;;;;;;;;;5044054;28;20108;-67
2022/12/02 08:55:51;;;;;;;68.13;39.10;;;;;;;;;;5042015;28;20025;-67
2022/12/02 08:58:16;;;;;;;58.92;38.47;;;;;;;;;;5033541;28;20025;-67
2022/12/02 09:00:42;;;;;;;65.70;39.00;;;;;;;;;;5041053;28;20021;-68
2022/12/02 09:03:07;;;;;;;66.05;40.00;;;;;;;;;;5042359;28;20407;-67
2022/12/02 09:05:34;;;;;;;62.83;39.45;;;;;;;;;;5034058;28;20034;-68
2022/12/02 09:07:59;;;;;;;76.97;41.63;;;;;;;;;;5033466;28;20107;-67
2022/12/02 09:10:24;;;;;;;69.47;39.20;;;;;;;;;;5026921;28;20031;-68
2022/12/02 09:12:50;;;;;;;67.55;40.47;;;;;;;;;;5031599;28;20059;-68
2022/12/02 09:15:15;;;;;;;73.70;40.90;;;;;;;;;;5025762;28;20017;-67
2022/12/02 09:17:40;;;;;;;69.43;41.28;;;;;;;;;;5011987;28;20032;-68
2022/12/02 09:20:06;;;;;;;73.38;37.63;;;;;;;;;;5028214;28;20048;-68
2022/12/02 09:22:31;;;;;;;70.45;40.80;;;;;;;;;;5032718;28;20032;-67
2022/12/02 09:24:57;;;;;;;70.63;40.78;;;;;;;;;;5036082;28;20752;-67
2022/12/02 09:27:22;;;;;;;70.68;40.90;;;;;;;;;;5028299;28;20021;-67
2022/12/02 09:29:47;;;;;;;64.70;40.00;;;;;;;;;;5030934;28;20130;-67
2022/12/02 09:32:13;;;;;;;69.03;37.97;;;;;;;;;;5031872;28;20811;-67
2022/12/02 09:34:38;;;;;;;68.05;41.47;;;;;;;;;;5029521;28;20122;-67
2022/12/02 09:37:03;;;;;;;63.28;36.80;;;;;;;;;;5029535;28;20020;-68
2022/12/02 09:39:28;;;;;;;74.70;40.78;;;;;;;;;;5029587;28;20064;-67
2022/12/02 09:41:54;;;;;;;63.30;39.88;;;;;;;;;;5034528;28;20565;-68
2022/12/02 09:44:19;;;;;;;69.18;41.15;;;;;;;;;;5027722;28;20025;-67
2022/12/02 09:46:45;;;;;;;68.45;41.10;;;;;;;;;;5033050;28;20489;-67
2022/12/02 09:49:10;;;;;;;71.93;42.05;;;;;;;;;;5030866;28;20028;-68
2022/12/02 09:51:35;;;;;;;63.33;41.08;;;;;;;;;;5030177;28;20080;-68
2022/12/02 09:54:01;;;;;;;66.10;39.67;;;;;;;;;;5030825;28;20758;-68
2022/12/02 09:56:28;;;;;;;68.70;39.17;;;;;;;;;;5024391;28;20029;-67
2022/12/02 09:58:54;;;;;;;69.88;41.47;;;;;;;;;;5020341;28;20018;-68
2022/12/02 10:01:20;;;;;;;71.05;43.20;;;;;;;;;;5028504;28;20048;-67
2022/12/02 10:03:48;;;;;;;66.85;40.58;;;;;;;;;;5033293;28;20746;-67
2022/12/02 10:06:23;;;;;;;69.97;39.53;;;;;;;;;;5027174;28;20025;-68
2022/12/02 10:08:49;;;;;;;72.63;41.88;;;;;;;;;;5032025;28;20032;-68
2022/12/02 10:11:26;;;;;;;76.55;42.95;;;;;;;;;;5028259;28;20033;-67
2022/12/02 10:13:51;;;;;;;69.40;40.83;;;;;;;;;;5027492;28;20021;-67
2022/12/02 10:16:16;;;;;;;68.68;40.40;;;;;;;;;;5026521;28;20072;-67
2022/12/02 10:18:42;;;;;;;71.93;41.55;;;;;;;;;;5026205;28;20082;-68
2022/12/02 10:21:07;;;;;;;70.05;40.53;;;;;;;;;;5027246;28;20039;-67
2022/12/02 10:23:49;;;;;;;67.28;40.08;;;;;;;;;;5025467;28;20021;-67
2022/12/02 10:26:14;;;;;;;62.13;38.33;;;;;;;;;;5023811;28;20033;-67
2022/12/02 10:28:41;;;;;;;72.55;41.10;;;;;;;;;;5022132;28;20785;-69
2022/12/02 10:31:09;;;;;;;78.47;40.05;;;;;;;;;;5023923;28;20063;-68
2022/12/02 10:33:35;;;;;;;61.35;39.55;;;;;;;;;;5023957;28;20017;-66
2022/12/02 10:36:00;;;;;;;61.03;38.83;;;;;;;;;;5026632;28;20020;-66
2022/12/02 10:38:32;;;;;;;64.07;38.92;;;;;;;;;;5022834;28;20025;-68
2022/12/02 10:41:15;;;;;;;65.75;36.58;;;;;;;;;;5028532;28;20913;-67
2022/12/02 10:43:42;;;;;;;62.67;37.70;;;;;;;;;;5019713;28;20160;-67
2022/12/02 10:46:10;;;;;;;64.10;36.53;;;;;;;;;;5021783;28;20082;-67
2022/12/02 10:48:36;;;;;;;68.95;37.17;;;;;;;;;;5022358;28;20036;-70
2022/12/02 10:51:01;;;;;;;74.32;38.78;;;;;;;;;;5036277;28;20853;-69
2022/12/02 10:53:28;;;;;;;63.83;37.92;;;;;;;;;;5029058;28;20021;-70
2022/12/02 10:55:53;;;;;;;59.85;35.30;;;;;;;;;;5022822;28;20112;-69
2022/12/02 10:58:25;;;;;;;62.10;34.30;;;;;;;;;;5018572;28;20030;-70
2022/12/02 11:00:50;;;;;;;69.55;39.17;;;;;;;;;;5026228;28;20135;-70
2022/12/02 11:03:16;;;;;;;57.17;35.08;;;;;;;;;;5025491;28;20017;-70
2022/12/02 11:05:41;;;;;;;62.45;35.47;;;;;;;;;;5024528;28;20037;-70
2022/12/02 11:08:16;;;;;;;77.40;41.00;;;;;;;;;;5025931;28;20017;-70
2022/12/02 11:10:44;;;;;;;71.38;39.13;;;;;;;;;;5024423;28;20052;-69
2022/12/02 11:13:12;;;;;;;63.55;37.05;;;;;;;;;;5020005;28;20016;-70
2022/12/02 11:15:42;;;;;;;84.95;40.80;;;;;;;;;;5022146;28;20085;-70
2022/12/02 11:18:09;;;;;;;81.50;42.58;;;;;;;;;;5020741;28;20838;-68
2022/12/02 11:20:36;;;;;;;78.43;45.53;;;;;;;;;;5016199;28;20029;-69
2022/12/02 11:23:13;;;;;;;80.72;43.40;;;;;;;;;;5037347;28;20079;-71
2022/12/02 11:25:42;;;;;;;89.88;44.78;;;;;;;;;;5050876;28;20020;-70
2022/12/02 11:28:16;;;;;;;90.50;51.00;;;;;;;;;;5044101;28;20036;-70
2022/12/02 11:30:42;;;;;;;94.20;47.58;;;;;;;;;;5035329;28;20052;-70
2022/12/02 11:33:32;;;;;;;85.38;46.28;;;;;;;;;;5037959;28;20464;-70
2022/12/02 11:36:14;;;;;;;85.20;49.42;;;;;;;;;;5045310;28;20038;-70
2022/12/02 11:38:57;;;;;;;95.70;50.47;;;;;;;;;;5037861;28;20164;-70
2022/12/02 11:41:23;;;;;;;96.90;49.17;;;;;;;;;;5038238;28;20071;-70
2022/12/02 11:44:27;;;;;;;96.32;51.40;;;;;;;;;;5039104;28;20119;-71
2022/12/02 11:46:54;;;;;;;100.45;49.83;;;;;;;;;;5023273;28;20327;-70
2022/12/02 11:49:36;;;;;;;101.20;54.33;;;;;;;;;;5029991;28;20025;-70
2022/12/02 11:52:11;;;;;;;98.13;51.78;;;;;;;;;;5034791;28;20038;-70
2022/12/02 11:54:48;;;;;;;106.18;51.40;;;;;;;;;;5051724;28;20020;-71
2022/12/02 11:57:27;;;;;;;99.00;52.35;;;;;;;;;;5034853;28;20014;-70
2022/12/02 11:59:52;;;;;;;96.00;55.75;;;;;;;;;;5032460;28;20056;-71
2022/12/02 12:02:19;;;;;;;96.40;55.05;;;;;;;;;;5032898;28;20045;-70
2022/12/02 12:04:45;;;;;;;95.40;53.70;;;;;;;;;;5032754;28;20029;-69
2022/12/02 12:07:11;;;;;;;102.90;55.08;;;;;;;;;;5032011;28;20044;-70
2022/12/02 12:09:36;;;;;;;99.93;53.22;;;;;;;;;;5057709;28;20376;-69
2022/12/02 12:12:05;;;;;;;83.65;53.00;;;;;;;;;;5047931;28;20020;-70
2022/12/02 12:14:30;;;;;;;97.07;52.88;;;;;;;;;;5050881;28;20392;-71
2022/12/02 12:17:14;;;;;;;96.30;51.63;;;;;;;;;;5047382;28;20025;-70
2022/12/02 12:19:40;;;;;;;85.10;51.97;;;;;;;;;;5050192;28;20017;-70
2022/12/02 12:22:22;;;;;;;92.57;51.85;;;;;;;;;;5059293;28;20027;-69
2022/12/02 12:24:47;;;;;;;90.70;52.33;;;;;;;;;;5046661;28;20021;-71
2022/12/02 12:27:31;;;;;;;81.50;51.20;;;;;;;;;;5031786;28;20082;-70
2022/12/02 12:29:56;;;;;;;90.20;52.05;;;;;;;;;;5034579;28;20038;-70
2022/12/02 12:32:21;;;;;;;86.40;52.40;;;;;;;;;;5040793;28;20163;-70
2022/12/02 12:34:47;;;;;;;94.35;53.58;;;;;;;;;;5044953;28;20502;-71
2022/12/02 12:37:12;;;;;;;87.55;51.67;;;;;;;;;;5035068;28;20037;-70
2022/12/02 12:39:38;;;;;;;80.93;49.63;;;;;;;;;;5038860;28;20120;-71
2022/12/02 12:42:03;;;;;;;87.85;54.22;;;;;;;;;;5037518;28;20467;-70
2022/12/02 12:44:29;;;;;;;83.40;49.78;;;;;;;;;;5041799;28;20021;-71
2022/12/02 12:46:54;;;;;;;83.47;48.92;;;;;;;;;;5034713;28;20017;-70
2022/12/02 12:49:19;;;;;;;77.35;47.85;;;;;;;;;;5043865;28;20036;-70
2022/12/02 12:51:44;;;;;;;81.20;48.78;;;;;;;;;;5040963;28;20017;-69
2022/12/02 12:54:10;;;;;;;90.45;48.15;;;;;;;;;;5048606;28;20079;-70
2022/12/02 12:56:35;;;;;;;82.53;48.22;;;;;;;;;;5041356;28;20439;-70
2022/12/02 12:59:00;;;;;;;71.15;44.60;;;;;;;;;;5031638;28;20751;-71
2022/12/02 13:01:25;;;;;;;76.45;48.92;;;;;;;;;;5036873;28;20033;-71
2022/12/02 13:03:51;;;;;;;83.50;47.67;;;;;;;;;;5041852;28;20086;-70
2022/12/02 13:06:16;;;;;;;78.68;45.38;;;;;;;;;;5042118;28;20236;-71
2022/12/02 13:08:42;;;;;;;79.45;47.75;;;;;;;;;;5036533;28;20480;-71
2022/12/02 13:11:07;;;;;;;81.50;47.35;;;;;;;;;;5035877;28;20025;-72
2022/12/02 13:13:32;;;;;;;74.28;43.92;;;;;;;;;;5037081;28;20091;-70
2022/12/02 13:15:58;;;;;;;78.05;48.25;;;;;;;;;;5041924;28;20474;-70
2022/12/02 13:18:23;;;;;;;77.60;47.55;;;;;;;;;;5030652;28;20045;-70
2022/12/02 13:20:48;;;;;;;79.13;45.25;;;;;;;;;;5042607;28;20017;-69
2022/12/02 13:23:13;;;;;;;75.50;45.00;;;;;;;;;;5044326;28;20017;-70
2022/12/02 13:25:38;;;;;;;76.45;46.83;;;;;;;;;;5041656;28;20048;-70
2022/12/02 13:28:04;;;;;;;72.72;46.05;;;;;;;;;;5043401;28;20021;-68
2022/12/02 13:30:29;;;;;;;82.90;46.35;;;;;;;;;;5025805;28;20131;-70
2022/12/02 13:32:54;;;;;;;81.00;47.65;;;;;;;;;;5016099;28;20024;-71
2022/12/02 13:35:19;;;;;;;83.13;47.17;;;;;;;;;;5013378;28;20028;-70
2022/12/02 13:37:45;;;;;;;72.90;49.30;;;;;;;;;;5047933;28;20013;-70
2022/12/02 13:40:11;;;;;;;83.95;49.75;;;;;;;;;;5049568;28;20112;-70
2022/12/02 13:42:37;;;;;;;78.70;50.47;;;;;;;;;;5049495;28;20100;-69
2022/12/02 13:45:02;;;;;;;88.82;50.88;;;;;;;;;;5057948;28;20104;-68
2022/12/02 13:47:28;;;;;;;75.20;46.67;;;;;;;;;;5044431;28;20049;-69
2022/12/02 13:49:53;;;;;;;79.82;49.33;;;;;;;;;;5047117;28;20079;-70
2022/12/02 13:52:18;;;;;;;86.53;49.90;;;;;;;;;;5047418;28;20009;-70
2022/12/02 13:54:43;;;;;;;76.90;48.63;;;;;;;;;;5054028;28;20383;-69
2022/12/02 13:57:09;;;;;;;82.30;49.95;;;;;;;;;;5042915;28;20025;-70
2022/12/02 13:59:34;;;;;;;82.30;49.75;;;;;;;;;;5032500;28;20384;-70
2022/12/02 14:01:59;;;;;;;80.13;50.17;;;;;;;;;;5048480;28;20479;-69
2022/12/02 14:04:24;;;;;;;74.40;50.20;;;;;;;;;;5061825;28;20100;-70
2022/12/02 14:06:50;;;;;;;71.93;44.45;;;;;;;;;;5049188;28;20212;-70
2022/12/02 14:09:15;;;;;;;78.03;49.60;;;;;;;;;;5053414;28;20016;-70
2022/12/02 14:11:40;;;;;;;84.30;48.00;;;;;;;;;;5051824;28;20016;-70
2022/12/02 14:14:06;;;;;;;78.25;45.72;;;;;;;;;;5053322;28;20025;-70
2022/12/02 14:16:31;;;;;;;74.10;47.38;;;;;;;;;;5042674;28;20009;-68